Vandalia, Montana
Current Conditions -  °F | °C
As of 1:53 AM on Thursday 27 Nov 2014 (Local Time) from KGGW Reporting Station
Overcast Overcast  
Wind Chill:   Ceiling: 5000
Heat Index: 18°   Visibility: 7mi
Dew Point: 13°   Wind: 15mph
Humidity: 81%   Direction: 100°E
Pressure: 30.15"   Gusts: NA
Location:  48.35°N, 106.92°W
Report Text: KGGW 270853Z AUTO 10013KT 7SM SCT008 SCT016 OVC050 M08/M11 A3015 RMK AO2 SNE27 SLP250 P0000 60000 T10781106 56018
Loading
Personal Weather Stations






























Interactive Weather Map New forecast layout! Learn more

10-Day Weather Forecast

Advertisements
Track Severe Weather on mobile